Time;durP1;ratioP1;P1;durP2;ratioP2;P2;SDS_P1;SDS_P2;PMS_P1;PMS_P2;Temp;Humidity;BMP_temperature;BMP_pressure;BME280_temperature;BME280_humidity;BME280_pressure;Samples;Min_cycle;Max_cycle;Signal;HPM_P1;HPM_P2
2022/11/02 00:00:34;;;;;;;11.70;9.35;;;;;;;;;;5000939;28;20030;-73
2022/11/02 00:03:00;;;;;;;21.35;9.50;;;;;;;;;;4997990;28;20045;-73
2022/11/02 00:05:26;;;;;;;10.23;9.23;;;;;;;;;;5004326;28;20053;-73
2022/11/02 00:07:53;;;;;;;10.32;9.02;;;;;;;;;;5000827;28;20041;-73
2022/11/02 00:10:20;;;;;;;9.75;8.75;;;;;;;;;;4994588;28;20026;-72
2022/11/02 00:12:46;;;;;;;16.83;9.05;;;;;;;;;;5002336;28;20048;-72
2022/11/02 00:15:12;;;;;;;10.50;9.50;;;;;;;;;;5005864;28;20524;-72
2022/11/02 00:17:40;;;;;;;10.60;9.57;;;;;;;;;;4998819;28;20036;-73
2022/11/02 00:20:07;;;;;;;10.68;9.68;;;;;;;;;;4996332;28;20085;-73
2022/11/02 00:22:33;;;;;;;11.02;9.32;;;;;;;;;;5004534;28;20045;-73
2022/11/02 00:25:02;;;;;;;12.90;9.68;;;;;;;;;;5004433;28;20038;-73
2022/11/02 00:27:30;;;;;;;10.75;9.70;;;;;;;;;;4997134;28;20030;-73
2022/11/02 00:29:56;;;;;;;11.82;9.68;;;;;;;;;;5000789;28;20087;-74
2022/11/02 00:32:23;;;;;;;10.73;9.63;;;;;;;;;;5000660;28;20038;-73
2022/11/02 00:34:48;;;;;;;10.75;9.07;;;;;;;;;;4999518;28;20057;-73
2022/11/02 00:37:14;;;;;;;17.25;9.32;;;;;;;;;;4995591;28;20030;-73
2022/11/02 00:39:40;;;;;;;12.68;9.82;;;;;;;;;;4995327;28;20034;-72
2022/11/02 00:42:06;;;;;;;10.68;9.68;;;;;;;;;;5001894;28;20038;-73
2022/11/02 00:44:31;;;;;;;12.13;9.60;;;;;;;;;;5005423;28;20114;-73
2022/11/02 00:46:57;;;;;;;10.95;9.82;;;;;;;;;;5004963;28;20073;-73
2022/11/02 00:49:23;;;;;;;11.65;9.68;;;;;;;;;;5000558;28;20099;-73
2022/11/02 00:51:49;;;;;;;10.57;9.52;;;;;;;;;;5003072;28;21470;-73
2022/11/02 00:54:15;;;;;;;10.73;9.70;;;;;;;;;;5007473;28;20045;-73
2022/11/02 00:56:41;;;;;;;9.75;8.93;;;;;;;;;;5004793;28;20038;-73
2022/11/02 00:59:06;;;;;;;13.48;9.48;;;;;;;;;;4998032;28;20076;-73
2022/11/02 01:01:32;;;;;;;10.50;9.38;;;;;;;;;;5001781;28;20031;-73
2022/11/02 01:03:58;;;;;;;10.00;9.00;;;;;;;;;;4998336;28;20667;-73
2022/11/02 01:06:23;;;;;;;10.27;9.38;;;;;;;;;;5001346;28;20033;-73
2022/11/02 01:08:49;;;;;;;10.40;9.50;;;;;;;;;;5004672;28;20049;-73
2022/11/02 01:11:19;;;;;;;10.48;9.40;;;;;;;;;;5001524;28;20041;-73
2022/11/02 01:13:45;;;;;;;10.98;10.02;;;;;;;;;;5004761;28;20037;-72
2022/11/02 01:16:12;;;;;;;11.25;9.85;;;;;;;;;;5002367;28;20030;-73
2022/11/02 01:18:38;;;;;;;9.88;8.95;;;;;;;;;;5009108;28;20083;-73
2022/11/02 01:21:05;;;;;;;10.18;9.27;;;;;;;;;;5005299;28;20033;-73
2022/11/02 01:23:32;;;;;;;11.27;10.13;;;;;;;;;;5005156;28;20097;-73
2022/11/02 01:26:03;;;;;;;10.50;9.43;;;;;;;;;;5004143;28;20200;-72
2022/11/02 01:28:28;;;;;;;10.38;9.40;;;;;;;;;;5010958;28;20029;-71
2022/11/02 01:30:54;;;;;;;12.43;9.55;;;;;;;;;;5000288;28;20036;-71
2022/11/02 01:33:19;;;;;;;13.57;9.60;;;;;;;;;;5001826;28;20049;-71
2022/11/02 01:35:45;;;;;;;11.20;9.25;;;;;;;;;;4994010;28;20107;-73
2022/11/02 01:38:10;;;;;;;11.73;10.00;;;;;;;;;;5007781;28;20030;-74
2022/11/02 01:40:38;;;;;;;10.10;9.02;;;;;;;;;;5004468;28;20034;-73
2022/11/02 01:43:23;;;;;;;10.57;8.77;;;;;;;;;;5002301;28;20030;-71
2022/11/02 01:45:57;;;;;;;11.98;9.20;;;;;;;;;;5006208;28;20489;-71
2022/11/02 01:48:31;;;;;;;14.00;9.80;;;;;;;;;;4995610;28;20046;-73
2022/11/02 01:50:59;;;;;;;12.65;9.43;;;;;;;;;;5004782;28;20041;-73
2022/11/02 01:53:25;;;;;;;13.33;9.17;;;;;;;;;;5005292;28;20038;-73
2022/11/02 01:55:50;;;;;;;10.95;9.57;;;;;;;;;;5008529;28;20288;-73
2022/11/02 01:58:16;;;;;;;10.05;9.02;;;;;;;;;;5003018;28;20034;-73
2022/11/02 02:00:42;;;;;;;12.38;9.50;;;;;;;;;;5005537;28;20108;-73
2022/11/02 02:03:15;;;;;;;11.30;9.65;;;;;;;;;;5005331;28;20040;-73
2022/11/02 02:05:48;;;;;;;13.63;9.27;;;;;;;;;;5002214;28;20391;-73
2022/11/02 02:08:19;;;;;;;11.85;9.57;;;;;;;;;;5003853;28;20034;-73
2022/11/02 02:10:45;;;;;;;14.05;9.23;;;;;;;;;;5004842;28;20080;-72
2022/11/02 02:13:11;;;;;;;10.20;8.80;;;;;;;;;;5005877;28;20034;-74
2022/11/02 02:16:17;;;;;;;11.82;8.80;;;;;;;;;;4984512;28;20112;-73
2022/11/02 02:18:47;;;;;;;8.90;8.23;;;;;;;;;;5009556;28;20049;-71
2022/11/02 02:21:15;;;;;;;;;;;;;;;;;;5020814;28;20038;-73
2022/11/02 02:24:05;;;;;;;10.43;9.43;;;;;;;;;;5010306;28;19913;-73
2022/11/02 02:26:46;;;;;;;11.98;9.60;;;;;;;;;;4994429;28;20038;-73
2022/11/02 02:29:26;;;;;;;10.15;9.20;;;;;;;;;;4992752;28;20038;-73
2022/11/02 02:32:02;;;;;;;10.80;9.32;;;;;;;;;;5007901;28;20070;-74
2022/11/02 02:34:48;;;;;;;9.95;9.05;;;;;;;;;;5001139;28;20040;-73
2022/11/02 02:37:17;;;;;;;10.10;9.10;;;;;;;;;;5006278;28;20156;-73
2022/11/02 02:39:54;;;;;;;11.68;9.60;;;;;;;;;;5013312;28;20030;-73
2022/11/02 02:42:28;;;;;;;10.00;9.05;;;;;;;;;;5001075;28;20030;-73
2022/11/02 02:45:10;;;;;;;10.98;9.88;;;;;;;;;;5002834;28;20034;-73
2022/11/02 02:47:44;;;;;;;11.02;10.00;;;;;;;;;;4988233;28;20039;-73
2022/11/02 02:50:20;;;;;;;15.25;10.10;;;;;;;;;;5003157;28;20077;-73
2022/11/02 02:52:49;;;;;;;12.10;9.30;;;;;;;;;;5000810;28;20664;-73
2022/11/02 02:55:29;;;;;;;14.00;9.82;;;;;;;;;;4985674;28;20027;-73
2022/11/02 02:57:55;;;;;;;;;;;;;;;;;;5005766;28;20052;-73
2022/11/02 03:00:21;;;;;;;10.32;9.43;;;;;;;;;;5008303;28;19959;-73
2022/11/02 03:03:00;;;;;;;10.57;9.48;;;;;;;;;;4999818;28;20085;-73
2022/11/02 03:05:34;;;;;;;11.90;10.43;;;;;;;;;;5005621;28;20398;-73
2022/11/02 03:08:07;;;;;;;10.98;9.85;;;;;;;;;;5007938;28;20761;-73
2022/11/02 03:10:40;;;;;;;11.90;9.52;;;;;;;;;;4999320;28;20031;-72
2022/11/02 03:13:24;;;;;;;11.13;10.02;;;;;;;;;;5006395;28;20126;-73
2022/11/02 03:16:02;;;;;;;19.25;10.05;;;;;;;;;;5007957;28;20469;-73
2022/11/02 03:18:37;;;;;;;11.00;10.00;;;;;;;;;;5004926;28;20029;-73
2022/11/02 03:21:37;;;;;;;10.25;9.10;;;;;;;;;;4987072;28;20472;-73
2022/11/02 03:24:17;;;;;;;10.35;9.35;;;;;;;;;;5004788;28;20041;-74
2022/11/02 03:27:11;;;;;;;12.38;10.23;;;;;;;;;;5006941;28;20569;-73
2022/11/02 03:29:58;;;;;;;10.88;9.68;;;;;;;;;;5006370;28;20564;-73
2022/11/02 03:32:45;;;;;;;10.18;9.32;;;;;;;;;;4997796;28;20044;-72
2022/11/02 03:35:18;;;;;;;9.77;8.88;;;;;;;;;;5005443;28;20038;-73
2022/11/02 03:38:14;;;;;;;12.10;9.35;;;;;;;;;;5012454;22;20046;-68
2022/11/02 03:40:48;;;;;;;12.07;9.88;;;;;;;;;;4969686;28;20026;-68
2022/11/02 03:43:17;;;;;;;10.98;9.90;;;;;;;;;;4986786;28;20034;-68
2022/11/02 03:45:50;;;;;;;11.55;9.63;;;;;;;;;;4984971;28;20045;-68
2022/11/02 03:48:17;;;;;;;11.88;10.48;;;;;;;;;;4972395;28;20066;-68
2022/11/02 03:50:50;;;;;;;12.80;9.73;;;;;;;;;;4972748;28;20034;-68
2022/11/02 03:53:25;;;;;;;10.43;9.40;;;;;;;;;;4967440;28;20046;-68
2022/11/02 03:55:56;;;;;;;10.45;9.48;;;;;;;;;;4970105;28;20054;-68
2022/11/02 03:58:22;;;;;;;10.70;9.48;;;;;;;;;;4974521;28;20097;-68
2022/11/02 04:00:54;;;;;;;10.32;9.32;;;;;;;;;;4959904;28;20034;-68
2022/11/02 04:03:22;;;;;;;11.77;9.85;;;;;;;;;;4971968;28;20061;-68
2022/11/02 04:05:48;;;;;;;10.65;9.38;;;;;;;;;;4969208;28;20066;-68
2022/11/02 04:08:37;;;;;;;9.95;8.95;;;;;;;;;;4985174;28;20734;-69
2022/11/02 04:16:40;;;;;;;10.77;9.50;;;;;;;;;;4968867;28;20105;-68
2022/11/02 04:19:27;;;;;;;11.05;9.45;;;;;;;;;;4986033;28;20045;-68
2022/11/02 04:27:32;;;;;;;10.80;9.73;;;;;;;;;;4974291;28;20092;-68
2022/11/02 04:29:57;;;;;;;10.00;9.10;;;;;;;;;;4965042;28;20560;-69
2022/11/02 04:35:14;;;;;;;16.85;9.43;;;;;;;;;;4969496;28;20454;-68
2022/11/02 04:40:27;;;;;;;10.43;9.43;;;;;;;;;;4972096;28;20528;-68
2022/11/02 04:42:53;;;;;;;12.02;10.13;;;;;;;;;;4969448;28;20070;-69
2022/11/02 04:45:19;;;;;;;10.43;9.50;;;;;;;;;;4968815;28;20039;-69
2022/11/02 04:47:45;;;;;;;11.45;10.20;;;;;;;;;;4965205;28;20113;-69
2022/11/02 04:50:11;;;;;;;10.63;9.40;;;;;;;;;;4968904;28;20083;-69
2022/11/02 04:52:38;;;;;;;9.82;8.93;;;;;;;;;;4967640;28;20128;-68
2022/11/02 04:55:04;;;;;;;10.55;9.55;;;;;;;;;;4968111;28;20517;-68
2022/11/02 04:57:31;;;;;;;11.45;8.98;;;;;;;;;;4968034;28;20035;-68
2022/11/02 04:59:58;;;;;;;11.07;8.93;;;;;;;;;;4966361;28;20518;-68
2022/11/02 05:02:24;;;;;;;15.18;10.13;;;;;;;;;;4962632;28;20046;-68
2022/11/02 05:04:50;;;;;;;9.77;8.90;;;;;;;;;;4966224;28;20034;-69
2022/11/02 05:07:16;;;;;;;11.50;9.95;;;;;;;;;;4967976;28;20057;-69
2022/11/02 05:09:43;;;;;;;13.48;10.95;;;;;;;;;;4966678;28;20549;-69
2022/11/02 05:12:10;;;;;;;14.52;12.52;;;;;;;;;;4983530;28;20072;-68
2022/11/02 05:14:36;;;;;;;14.30;12.68;;;;;;;;;;4967418;28;20146;-68
2022/11/02 05:17:03;;;;;;;12.95;11.75;;;;;;;;;;4983480;28;20546;-68
2022/11/02 05:19:29;;;;;;;12.63;11.52;;;;;;;;;;4977161;28;20569;-68
2022/11/02 05:21:57;;;;;;;13.23;12.13;;;;;;;;;;4965353;28;20066;-68
2022/11/02 05:24:24;;;;;;;11.95;10.85;;;;;;;;;;4966932;28;20893;-68
2022/11/02 05:26:50;;;;;;;12.00;10.68;;;;;;;;;;4967508;28;20050;-69
2022/11/02 05:29:16;;;;;;;11.23;9.93;;;;;;;;;;4967169;28;20045;-68
2022/11/02 05:31:41;;;;;;;11.05;10.05;;;;;;;;;;4965737;28;20039;-68
2022/11/02 05:34:07;;;;;;;10.35;9.32;;;;;;;;;;4967073;28;20047;-68
2022/11/02 05:36:32;;;;;;;11.57;10.48;;;;;;;;;;4967391;28;20037;-68
2022/11/02 05:38:58;;;;;;;10.20;9.30;;;;;;;;;;4968859;28;20042;-68
2022/11/02 05:41:25;;;;;;;10.38;9.57;;;;;;;;;;4984259;28;20035;-69
2022/11/02 05:43:53;;;;;;;10.27;9.35;;;;;;;;;;4967638;28;20042;-68
2022/11/02 05:46:21;;;;;;;10.75;9.73;;;;;;;;;;4970146;28;20455;-68
2022/11/02 05:48:46;;;;;;;11.98;10.88;;;;;;;;;;4986413;28;20066;-68
2022/11/02 05:51:12;;;;;;;13.50;10.15;;;;;;;;;;4967262;28;20071;-68
2022/11/02 05:53:38;;;;;;;14.95;9.45;;;;;;;;;;4969777;28;20056;-70
2022/11/02 05:56:05;;;;;;;12.60;10.52;;;;;;;;;;4974873;28;20085;-70
2022/11/02 05:58:32;;;;;;;19.30;11.27;;;;;;;;;;4978996;28;20074;-70
2022/11/02 06:01:01;;;;;;;19.33;10.88;;;;;;;;;;4962030;28;20026;-70
2022/11/02 06:03:27;;;;;;;16.88;10.80;;;;;;;;;;4970254;28;20042;-70
2022/11/02 06:05:57;;;;;;;11.32;10.02;;;;;;;;;;4968135;28;20042;-70
2022/11/02 06:08:23;;;;;;;11.32;10.05;;;;;;;;;;4969530;28;20042;-70
2022/11/02 06:10:49;;;;;;;11.85;9.68;;;;;;;;;;4968674;28;20035;-72
2022/11/02 06:13:14;;;;;;;10.88;9.77;;;;;;;;;;4972548;28;20047;-72
2022/11/02 06:15:40;;;;;;;10.80;9.80;;;;;;;;;;4970470;28;20121;-72
2022/11/02 06:18:06;;;;;;;13.52;9.45;;;;;;;;;;4969396;28;20042;-72
2022/11/02 06:20:32;;;;;;;11.18;10.07;;;;;;;;;;4968835;28;20030;-72
2022/11/02 06:22:58;;;;;;;11.88;9.30;;;;;;;;;;4969683;28;20046;-72
2022/11/02 06:25:24;;;;;;;10.88;9.57;;;;;;;;;;4984523;28;20035;-72
2022/11/02 06:27:55;;;;;;;10.30;9.30;;;;;;;;;;4972355;28;20034;-72
2022/11/02 06:30:23;;;;;;;13.35;10.30;;;;;;;;;;4972226;28;20059;-72
2022/11/02 06:32:50;;;;;;;11.27;10.02;;;;;;;;;;4970062;28;20100;-72
2022/11/02 06:35:18;;;;;;;10.68;9.68;;;;;;;;;;4974817;28;20046;-72
2022/11/02 06:37:44;;;;;;;11.63;8.93;;;;;;;;;;4982169;28;20092;-72
2022/11/02 06:40:11;;;;;;;10.45;9.55;;;;;;;;;;4966992;28;20050;-72
2022/11/02 06:42:38;;;;;;;10.98;9.85;;;;;;;;;;4970719;28;20035;-72
2022/11/02 06:45:04;;;;;;;10.98;9.93;;;;;;;;;;4971495;28;20039;-72
2022/11/02 06:47:31;;;;;;;13.63;9.82;;;;;;;;;;4987357;28;20041;-72
2022/11/02 06:49:58;;;;;;;13.07;9.35;;;;;;;;;;4971686;28;20039;-72
2022/11/02 06:52:23;;;;;;;10.60;9.60;;;;;;;;;;4970506;28;20031;-72
2022/11/02 06:54:49;;;;;;;10.40;9.32;;;;;;;;;;4975196;28;20428;-72
2022/11/02 06:57:14;;;;;;;11.10;9.48;;;;;;;;;;4989404;28;20049;-72
2022/11/02 06:59:40;;;;;;;12.80;9.65;;;;;;;;;;4972710;28;20046;-72
2022/11/02 07:02:07;;;;;;;10.82;9.82;;;;;;;;;;4973026;28;20491;-72
2022/11/02 07:04:32;;;;;;;14.23;10.15;;;;;;;;;;4972582;28;20042;-72
2022/11/02 07:06:58;;;;;;;11.05;10.05;;;;;;;;;;4971779;28;20778;-72
2022/11/02 07:09:23;;;;;;;11.45;10.25;;;;;;;;;;4972005;28;20046;-72
2022/11/02 07:11:49;;;;;;;16.08;10.73;;;;;;;;;;4967768;28;20127;-72
2022/11/02 07:14:14;;;;;;;19.27;10.73;;;;;;;;;;4971413;28;21641;-72
2022/11/02 07:16:40;;;;;;;13.35;10.20;;;;;;;;;;4972292;28;20063;-73
2022/11/02 07:19:05;;;;;;;11.32;10.23;;;;;;;;;;4969256;28;20042;-72
2022/11/02 07:21:31;;;;;;;14.55;10.30;;;;;;;;;;4983889;28;20106;-72
2022/11/02 07:23:56;;;;;;;10.85;9.77;;;;;;;;;;4973368;28;20343;-72
2022/11/02 07:26:22;;;;;;;10.68;9.77;;;;;;;;;;4974007;28;20042;-72
2022/11/02 07:28:48;;;;;;;12.02;10.05;;;;;;;;;;4964281;28;20043;-73
2022/11/02 07:31:13;;;;;;;9.10;8.23;;;;;;;;;;4978246;28;20034;-73
2022/11/02 07:33:39;;;;;;;9.27;8.48;;;;;;;;;;4987270;28;20066;-72
2022/11/02 07:36:05;;;;;;;13.50;8.85;;;;;;;;;;4970178;28;20047;-72
2022/11/02 07:38:31;;;;;;;16.10;8.75;;;;;;;;;;4972651;28;20101;-72
2022/11/02 07:40:56;;;;;;;12.45;8.90;;;;;;;;;;4969075;28;20035;-73
2022/11/02 07:43:22;;;;;;;12.30;7.80;;;;;;;;;;4969056;28;20034;-73
2022/11/02 07:45:56;;;;;;;10.98;9.20;;;;;;;;;;4982061;28;20050;-72
2022/11/02 07:48:21;;;;;;;9.32;8.38;;;;;;;;;;4953541;23;1393873;-69
2022/11/02 07:50:47;;;;;;;10.02;9.13;;;;;;;;;;4997389;28;20038;-70
2022/11/02 07:53:12;;;;;;;9.95;8.30;;;;;;;;;;5007319;28;20152;-70
2022/11/02 07:55:38;;;;;;;10.38;8.50;;;;;;;;;;5004646;28;20138;-69
2022/11/02 07:58:08;;;;;;;8.75;7.90;;;;;;;;;;5000740;28;20068;-69
2022/11/02 08:00:36;;;;;;;9.40;8.45;;;;;;;;;;5004091;28;20417;-69
2022/11/02 08:03:03;;;;;;;10.35;8.35;;;;;;;;;;5006603;28;20045;-69
2022/11/02 08:05:32;;;;;;;12.63;9.10;;;;;;;;;;4993916;28;20038;-70
2022/11/02 08:08:02;;;;;;;12.07;8.85;;;;;;;;;;5006506;28;20034;-70
2022/11/02 08:10:30;;;;;;;8.70;7.90;;;;;;;;;;5005523;28;20041;-69
2022/11/02 08:12:55;;;;;;;9.73;8.63;;;;;;;;;;5006812;28;20042;-68
2022/11/02 08:15:21;;;;;;;9.38;8.40;;;;;;;;;;5002746;28;20061;-70
2022/11/02 08:17:47;;;;;;;9.52;8.63;;;;;;;;;;5007257;28;20396;-69
2022/11/02 08:20:13;;;;;;;9.45;8.55;;;;;;;;;;5001638;28;20050;-69
2022/11/02 08:22:39;;;;;;;9.55;8.65;;;;;;;;;;4988786;28;20489;-72
2022/11/02 08:25:06;;;;;;;9.40;8.45;;;;;;;;;;5004135;28;20030;-68
2022/11/02 08:27:32;;;;;;;11.07;8.27;;;;;;;;;;5004260;28;20038;-68
2022/11/02 08:29:58;;;;;;;8.63;7.82;;;;;;;;;;5003981;28;20033;-68
2022/11/02 08:32:23;;;;;;;9.80;8.35;;;;;;;;;;5002372;28;20121;-69
2022/11/02 08:34:49;;;;;;;8.63;7.90;;;;;;;;;;4998361;28;20095;-69
2022/11/02 08:37:14;;;;;;;8.88;8.07;;;;;;;;;;5002509;28;20037;-68
2022/11/02 08:39:40;;;;;;;9.45;8.50;;;;;;;;;;5023270;28;20493;-68
2022/11/02 08:42:06;;;;;;;9.20;8.50;;;;;;;;;;5008714;28;20542;-69
2022/11/02 08:44:31;;;;;;;9.48;8.40;;;;;;;;;;5006452;28;20127;-69
2022/11/02 08:46:57;;;;;;;9.88;8.63;;;;;;;;;;5003593;28;20030;-68
2022/11/02 08:49:22;;;;;;;9.52;8.30;;;;;;;;;;5018481;28;20088;-69
2022/11/02 08:51:48;;;;;;;10.18;9.27;;;;;;;;;;5005546;28;20117;-69
2022/11/02 08:54:14;;;;;;;10.02;9.02;;;;;;;;;;5005449;28;20112;-69
2022/11/02 08:56:39;;;;;;;10.63;9.63;;;;;;;;;;4997818;28;20126;-69
2022/11/02 08:59:05;;;;;;;11.43;7.88;;;;;;;;;;5005305;28;20041;-68
2022/11/02 09:01:31;;;;;;;12.57;9.10;;;;;;;;;;5004953;28;20030;-68
2022/11/02 09:03:57;;;;;;;9.63;8.70;;;;;;;;;;5006399;28;20041;-68
2022/11/02 09:06:22;;;;;;;11.05;8.68;;;;;;;;;;5004542;28;20034;-70
2022/11/02 09:08:48;;;;;;;11.32;8.73;;;;;;;;;;5003938;28;20038;-69
2022/11/02 09:11:15;;;;;;;9.35;8.38;;;;;;;;;;5000641;28;20083;-69
2022/11/02 09:13:41;;;;;;;13.00;8.60;;;;;;;;;;4992109;28;20393;-69
2022/11/02 09:16:07;;;;;;;9.35;8.27;;;;;;;;;;5006380;28;20516;-70
2022/11/02 09:18:32;;;;;;;9.38;8.48;;;;;;;;;;5002413;28;20034;-70
2022/11/02 09:21:03;;;;;;;9.60;8.40;;;;;;;;;;5004691;28;20030;-69
2022/11/02 09:23:29;;;;;;;11.60;8.30;;;;;;;;;;5000745;28;20112;-69
2022/11/02 09:25:54;;;;;;;11.32;8.05;;;;;;;;;;5004333;28;20123;-68
2022/11/02 09:28:20;;;;;;;9.13;7.82;;;;;;;;;;5003913;28;20065;-69
2022/11/02 09:30:46;;;;;;;8.57;7.07;;;;;;;;;;5005791;28;20042;-69
2022/11/02 09:33:12;;;;;;;11.63;7.75;;;;;;;;;;5003601;28;20512;-69
2022/11/02 09:35:40;;;;;;;7.32;6.82;;;;;;;;;;5003268;28;20029;-70
2022/11/02 09:38:06;;;;;;;7.38;6.72;;;;;;;;;;5003100;28;20121;-70
2022/11/02 09:40:38;;;;;;;10.93;6.65;;;;;;;;;;5005918;28;20176;-71
2022/11/02 09:43:07;;;;;;;6.85;6.25;;;;;;;;;;5007507;28;20038;-71
2022/11/02 09:45:41;;;;;;;7.32;6.80;;;;;;;;;;5005127;28;20046;-70
2022/11/02 09:48:19;;;;;;;9.75;6.80;;;;;;;;;;5001288;28;20721;-71
2022/11/02 09:50:54;;;;;;;7.53;6.38;;;;;;;;;;5006431;28;20038;-70
2022/11/02 09:53:32;;;;;;;8.43;6.70;;;;;;;;;;5004654;28;20040;-70
2022/11/02 09:56:01;;;;;;;9.90;7.20;;;;;;;;;;5000418;28;20069;-71
2022/11/02 09:58:34;;;;;;;7.80;7.00;;;;;;;;;;5002022;28;20113;-70
2022/11/02 10:01:10;;;;;;;8.80;7.57;;;;;;;;;;5006621;28;20519;-70
2022/11/02 10:03:50;;;;;;;11.18;6.75;;;;;;;;;;5002033;28;20524;-71
2022/11/02 10:06:22;;;;;;;12.85;6.65;;;;;;;;;;5006916;28;20045;-69
2022/11/02 10:08:50;;;;;;;7.40;6.70;;;;;;;;;;5004133;28;20117;-70
2022/11/02 10:11:35;;;;;;;7.05;6.40;;;;;;;;;;5003973;28;20045;-69
2022/11/02 10:14:13;;;;;;;11.38;7.30;;;;;;;;;;5003117;28;20288;-70
2022/11/02 10:17:14;;;;;;;10.25;7.78;;;;;;;;;;5010126;28;20038;-70
2022/11/02 10:19:46;;;;;;;10.00;6.82;;;;;;;;;;5006105;28;20388;-71
2022/11/02 10:22:14;;;;;;;11.90;7.10;;;;;;;;;;5004740;28;20034;-70
2022/11/02 10:24:45;;;;;;;8.82;7.45;;;;;;;;;;5008625;28;20274;-70
2022/11/02 10:27:20;;;;;;;7.90;7.10;;;;;;;;;;5007758;28;20034;-71
2022/11/02 10:29:51;;;;;;;7.40;6.65;;;;;;;;;;4993741;28;20551;-71
2022/11/02 10:32:17;;;;;;;10.52;6.90;;;;;;;;;;5010063;28;20041;-70
2022/11/02 10:34:44;;;;;;;7.15;6.40;;;;;;;;;;5011011;28;20038;-70
2022/11/02 10:37:35;;;;;;;7.47;6.70;;;;;;;;;;4993354;28;20045;-70
2022/11/02 10:40:12;;;;;;;15.38;6.78;;;;;;;;;;5006339;28;20037;-69
2022/11/02 10:42:45;;;;;;;8.73;6.97;;;;;;;;;;5007923;28;20061;-71
2022/11/02 10:45:36;;;;;;;7.40;6.78;;;;;;;;;;5008396;28;20313;-70
2022/11/02 10:48:13;;;;;;;8.90;6.45;;;;;;;;;;5005718;28;20038;-70
2022/11/02 10:51:06;;;;;;;8.10;7.10;;;;;;;;;;5007121;28;20038;-69
2022/11/02 10:53:35;;;;;;;9.13;6.82;;;;;;;;;;5007236;28;20093;-70
2022/11/02 10:56:10;;;;;;;9.93;7.30;;;;;;;;;;5010424;28;20460;-69
2022/11/02 10:58:42;;;;;;;7.38;6.80;;;;;;;;;;5006716;28;20038;-70
2022/11/02 11:01:10;;;;;;;8.32;7.18;;;;;;;;;;5007144;28;20037;-70
2022/11/02 11:04:05;;;;;;;8.98;6.88;;;;;;;;;;5003317;28;20393;-70
2022/11/02 11:06:36;;;;;;;10.35;7.30;;;;;;;;;;4997064;28;20042;-70
2022/11/02 11:09:14;;;;;;;8.40;6.30;;;;;;;;;;5005863;28;20409;-70
2022/11/02 11:11:40;;;;;;;8.32;6.70;;;;;;;;;;5006140;28;20040;-70
2022/11/02 11:14:15;;;;;;;9.43;6.72;;;;;;;;;;5008205;28;20042;-70
2022/11/02 11:16:44;;;;;;;7.10;6.55;;;;;;;;;;5005045;28;20038;-71
2022/11/02 11:19:37;;;;;;;7.38;6.78;;;;;;;;;;5008343;28;20034;-68
2022/11/02 11:22:21;;;;;;;8.20;6.70;;;;;;;;;;5003708;28;20038;-70
2022/11/02 11:24:46;;;;;;;7.68;6.88;;;;;;;;;;4974626;28;20485;-70
2022/11/02 11:27:12;;;;;;;9.93;7.25;;;;;;;;;;4999268;28;20482;-70
2022/11/02 11:29:40;;;;;;;11.13;6.80;;;;;;;;;;5008476;28;20041;-70
2022/11/02 11:32:18;;;;;;;8.05;7.00;;;;;;;;;;5009008;28;20488;-71
2022/11/02 11:34:52;;;;;;;11.98;6.97;;;;;;;;;;5006952;28;20040;-71
2022/11/02 11:37:17;;;;;;;9.35;6.93;;;;;;;;;;5008341;28;20044;-71
2022/11/02 11:39:45;;;;;;;9.30;6.90;;;;;;;;;;5008516;28;20033;-70
2022/11/02 11:42:18;;;;;;;13.95;7.05;;;;;;;;;;5008568;28;20112;-71
2022/11/02 11:44:50;;;;;;;7.70;7.00;;;;;;;;;;5003513;28;20030;-70
2022/11/02 11:47:15;;;;;;;8.32;7.47;;;;;;;;;;4999929;28;20076;-70
2022/11/02 11:49:48;;;;;;;6.78;6.15;;;;;;;;;;5006722;28;20057;-70
2022/11/02 11:52:20;;;;;;;7.30;6.70;;;;;;;;;;5005658;28;20037;-70
2022/11/02 11:54:55;;;;;;;9.73;6.95;;;;;;;;;;4997001;28;20100;-70
2022/11/02 11:57:24;;;;;;;7.55;6.82;;;;;;;;;;5005735;28;20033;-71
2022/11/02 11:59:56;;;;;;;8.27;7.43;;;;;;;;;;5006717;28;20037;-71
2022/11/02 12:02:34;;;;;;;11.80;7.50;;;;;;;;;;5002881;28;20489;-71
2022/11/02 12:05:16;;;;;;;9.68;8.55;;;;;;;;;;4995243;28;20042;-70
2022/11/02 12:07:48;;;;;;;8.00;7.30;;;;;;;;;;5003990;28;20520;-70
2022/11/02 12:10:21;;;;;;;10.98;7.40;;;;;;;;;;5003708;28;20056;-70
2022/11/02 12:13:00;;;;;;;7.95;7.10;;;;;;;;;;5003336;28;20041;-71
2022/11/02 12:15:58;;;;;;;7.88;7.07;;;;;;;;;;5000550;28;20188;-71
2022/11/02 12:18:32;;;;;;;17.10;8.20;;;;;;;;;;5007325;28;20046;-71
2022/11/02 12:21:16;;;;;;;10.73;7.60;;;;;;;;;;5004216;28;20041;-71
2022/11/02 12:23:54;;;;;;;8.20;7.50;;;;;;;;;;5002501;28;20038;-70
2022/11/02 12:26:36;;;;;;;9.93;7.93;;;;;;;;;;5006546;28;20489;-71
2022/11/02 12:29:10;;;;;;;8.75;7.72;;;;;;;;;;5006119;28;20081;-71
2022/11/02 12:31:50;;;;;;;11.73;8.45;;;;;;;;;;5002756;28;20045;-71
2022/11/02 12:35:00;;;;;;;8.43;7.68;;;;;;;;;;5005061;28;20555;-71
2022/11/02 12:38:04;;;;;;;8.32;7.72;;;;;;;;;;4948517;28;20046;-71
2022/11/02 12:40:45;;;;;;;9.10;8.18;;;;;;;;;;4943663;28;20555;-71
2022/11/02 12:43:13;;;;;;;10.07;7.88;;;;;;;;;;4931325;28;20050;-71
2022/11/02 12:46:02;;;;;;;9.40;8.20;;;;;;;;;;4951947;28;20039;-71
2022/11/02 12:49:02;;;;;;;8.10;7.50;;;;;;;;;;4960361;28;20055;-69
2022/11/02 12:51:37;;;;;;;9.85;8.00;;;;;;;;;;4937019;28;20126;-71
2022/11/02 12:54:27;;;;;;;10.02;8.00;;;;;;;;;;4949962;28;20042;-71
2022/11/02 12:56:53;;;;;;;8.85;8.05;;;;;;;;;;4953133;28;21258;-71
2022/11/02 12:59:25;;;;;;;8.82;7.93;;;;;;;;;;4950911;28;20075;-71
2022/11/02 13:01:55;;;;;;;8.98;8.15;;;;;;;;;;4945963;28;20047;-70
2022/11/02 13:04:39;;;;;;;9.93;7.93;;;;;;;;;;4947960;28;20053;-71
2022/11/02 13:07:11;;;;;;;9.38;8.40;;;;;;;;;;4951475;28;20499;-71
2022/11/02 13:09:43;;;;;;;9.88;8.43;;;;;;;;;;4999808;28;20034;-70
2022/11/02 13:12:13;;;;;;;8.60;7.90;;;;;;;;;;5000454;28;20097;-71
2022/11/02 13:14:42;;;;;;;11.70;8.20;;;;;;;;;;5004140;28;20060;-71
2022/11/02 13:17:37;;;;;;;9.07;8.27;;;;;;;;;;5003646;28;20036;-71
2022/11/02 13:20:06;;;;;;;8.45;7.80;;;;;;;;;;5000790;28;20500;-70
2022/11/02 13:22:37;;;;;;;8.63;7.97;;;;;;;;;;5003359;28;20045;-70
2022/11/02 13:25:14;;;;;;;9.80;7.65;;;;;;;;;;5003448;28;20333;-70
2022/11/02 13:27:54;;;;;;;9.35;7.85;;;;;;;;;;5002196;28;20073;-72
2022/11/02 13:30:19;;;;;;;;;;;;;;;;;;5005828;28;20041;-70
2022/11/02 13:32:53;;;;;;;7.80;7.18;;;;;;;;;;5003759;28;20407;-72
2022/11/02 13:35:22;;;;;;;13.18;7.40;;;;;;;;;;5005352;28;20037;-71
2022/11/02 13:37:54;;;;;;;8.82;7.93;;;;;;;;;;5001820;28;20536;-71
2022/11/02 13:40:25;;;;;;;10.70;7.63;;;;;;;;;;4997635;28;20044;-69
2022/11/02 13:43:18;;;;;;;9.05;7.38;;;;;;;;;;5001337;28;20092;-69
2022/11/02 13:46:07;;;;;;;9.32;7.93;;;;;;;;;;5003058;28;20485;-71
2022/11/02 13:48:54;;;;;;;9.63;8.15;;;;;;;;;;5000172;28;20489;-69
2022/11/02 13:51:58;;;;;;;8.43;7.78;;;;;;;;;;5000068;28;20386;-71
2022/11/02 13:54:32;;;;;;;8.98;8.07;;;;;;;;;;4996673;28;20104;-69
2022/11/02 13:56:58;;;;;;;8.52;7.72;;;;;;;;;;4998898;28;20062;-69
2022/11/02 13:59:37;;;;;;;10.00;7.70;;;;;;;;;;5012000;28;20104;-70
2022/11/02 14:02:07;;;;;;;12.70;8.20;;;;;;;;;;5003366;28;20105;-70
2022/11/02 14:04:41;;;;;;;8.90;8.00;;;;;;;;;;4999476;28;20137;-70
2022/11/02 14:07:19;;;;;;;8.48;7.68;;;;;;;;;;5001251;28;20030;-70
2022/11/02 14:09:45;;;;;;;10.20;8.17;;;;;;;;;;5002046;28;20033;-69
2022/11/02 14:12:24;;;;;;;8.98;7.90;;;;;;;;;;5001623;28;20026;-70
2022/11/02 14:15:11;;;;;;;8.68;7.82;;;;;;;;;;5001641;28;20128;-70
2022/11/02 14:17:52;;;;;;;8.40;7.70;;;;;;;;;;5000897;28;20085;-70
2022/11/02 14:20:43;;;;;;;8.88;7.75;;;;;;;;;;5006968;28;20037;-70
2022/11/02 14:23:09;;;;;;;9.07;7.72;;;;;;;;;;5001775;28;20076;-70
2022/11/02 14:25:44;;;;;;;8.80;7.90;;;;;;;;;;5002759;28;20648;-70
2022/11/02 14:28:22;;;;;;;7.95;7.30;;;;;;;;;;4997787;28;20367;-70
2022/11/02 14:31:02;;;;;;;12.35;8.10;;;;;;;;;;5001518;28;20547;-69
2022/11/02 14:33:37;;;;;;;10.93;7.50;;;;;;;;;;5002912;28;20117;-70
2022/11/02 14:36:09;;;;;;;11.73;7.57;;;;;;;;;;5002647;28;20232;-71
2022/11/02 14:39:15;;;;;;;9.50;7.82;;;;;;;;;;5001914;28;20038;-71
2022/11/02 14:41:49;;;;;;;10.10;7.50;;;;;;;;;;4999111;28;20038;-70
2022/11/02 14:44:44;;;;;;;10.60;7.75;;;;;;;;;;5000364;28;20045;-70
2022/11/02 14:47:16;;;;;;;13.68;7.50;;;;;;;;;;5001964;28;20433;-70
2022/11/02 14:49:50;;;;;;;9.00;7.95;;;;;;;;;;5000187;28;20660;-71
2022/11/02 14:52:33;;;;;;;8.50;7.60;;;;;;;;;;5002494;28;20319;-71
2022/11/02 14:55:07;;;;;;;12.70;7.65;;;;;;;;;;4996567;28;20116;-70
2022/11/02 14:57:41;;;;;;;10.35;7.90;;;;;;;;;;4997343;28;20061;-70
2022/11/02 15:00:16;;;;;;;9.00;8.02;;;;;;;;;;5003277;28;20033;-69
2022/11/02 15:02:42;;;;;;;9.68;7.72;;;;;;;;;;4997139;28;20223;-70
2022/11/02 15:05:29;;;;;;;11.60;8.15;;;;;;;;;;5005654;28;20536;-69
2022/11/02 15:08:01;;;;;;;8.70;7.90;;;;;;;;;;5002218;28;20537;-70
2022/11/02 15:10:29;;;;;;;8.63;7.18;;;;;;;;;;4997483;28;20040;-69
2022/11/02 15:13:17;;;;;;;8.52;7.78;;;;;;;;;;4999924;28;20108;-70
2022/11/02 15:15:43;;;;;;;9.25;7.68;;;;;;;;;;5001361;28;20034;-69